Time;durP1;ratioP1;P1;durP2;ratioP2;P2;SDS_P1;SDS_P2;PMS_P1;PMS_P2;Temp;Humidity;BMP_temperature;BMP_pressure;BME280_temperature;BME280_humidity;BME280_pressure;Samples;Min_cycle;Max_cycle;Signal;HPM_P1;HPM_P2
2022/06/08 00:00:13;;;;;;;2.27;1.00;;;;;;;15.59;93.29;97856.47;5134453;28;20249;-70
2022/06/08 00:02:41;;;;;;;1.30;1.20;;;;;;;15.61;93.05;97849.03;5140610;27;20239;-69
2022/06/08 00:05:08;;;;;;;1.20;1.10;;;;;;;15.65;91.93;97852.81;5141080;27;20665;-69
2022/06/08 00:07:35;;;;;;;2.07;1.43;;;;;;;15.60;92.64;97850.88;5140994;27;20242;-69
2022/06/08 00:10:02;;;;;;;1.70;1.30;;;;;;;15.62;92.23;97840.72;5140914;27;20624;-69
2022/06/08 00:12:28;;;;;;;2.93;1.37;;;;;;;15.61;92.12;97841.75;5141243;27;20233;-70
2022/06/08 00:14:55;;;;;;;2.97;1.30;;;;;;;15.62;91.96;97842.59;5141309;27;20251;-69
2022/06/08 00:17:23;;;;;;;1.83;1.30;;;;;;;15.62;91.96;97850.63;5141185;27;20209;-70
2022/06/08 00:19:49;;;;;;;3.20;1.20;;;;;;;15.66;92.21;97847.19;5141229;27;20202;-69
2022/06/08 00:22:17;;;;;;;1.50;1.17;;;;;;;15.70;91.10;97844.81;5141737;27;20237;-69
2022/06/08 00:24:43;;;;;;;1.57;1.20;;;;;;;15.68;91.29;97846.91;5141293;27;20198;-70
2022/06/08 00:27:10;;;;;;;1.90;1.20;;;;;;;15.68;91.55;97839.69;5141182;27;20256;-69
2022/06/08 00:29:37;;;;;;;1.30;1.20;;;;;;;15.64;91.48;97835.09;5140761;27;20226;-69
2022/06/08 00:32:04;;;;;;;4.87;1.33;;;;;;;15.70;91.22;97837.56;5140738;27;20225;-69
2022/06/08 00:34:30;;;;;;;2.37;1.13;;;;;;;15.58;91.36;97831.59;5141640;27;20259;-70
2022/06/08 00:36:57;;;;;;;2.00;1.20;;;;;;;15.61;91.78;97824.91;5140775;27;20252;-69
2022/06/08 00:39:23;;;;;;;4.43;1.30;;;;;;;15.54;91.41;97826.97;5140688;27;20568;-69
2022/06/08 00:41:56;;;;;;;1.77;1.20;;;;;;;15.58;91.11;97828.09;5140754;27;20247;-70
2022/06/08 00:44:39;;;;;;;1.77;1.30;;;;;;;15.58;92.26;97823.53;5140719;27;20206;-69
2022/06/08 00:47:08;;;;;;;2.57;1.10;;;;;;;15.59;91.46;97819.78;5140703;27;20296;-70
2022/06/08 00:49:49;;;;;;;1.83;1.10;;;;;;;15.55;92.18;97821.38;5122604;27;20305;-69
2022/06/08 00:52:16;;;;;;;1.60;1.43;;;;;;;15.48;90.94;97817.28;5141115;27;20305;-69
2022/06/08 00:54:53;;;;;;;2.07;1.50;;;;;;;15.45;90.97;97818.59;5122184;27;20751;-70
2022/06/08 00:57:26;;;;;;;4.00;1.47;;;;;;;15.43;90.74;97818.03;5141415;27;20222;-70
2022/06/08 01:00:02;;;;;;;3.60;1.53;;;;;;;15.40;91.15;97821.25;5141750;27;20197;-69
2022/06/08 01:02:29;;;;;;;1.50;1.10;;;;;;;15.39;91.45;97822.31;5140858;27;20183;-69
2022/06/08 01:05:23;;;;;;;1.97;1.17;;;;;;;15.42;90.43;97805.72;5140785;27;20199;-69
2022/06/08 01:07:53;;;;;;;3.23;1.60;;;;;;;15.45;89.78;97815.09;5140961;27;20278;-69
2022/06/08 01:10:24;;;;;;;3.63;1.30;;;;;;;15.46;89.17;97820.22;5140655;27;20207;-69
2022/06/08 01:12:51;;;;;;;2.13;1.50;;;;;;;15.46;89.72;97817.53;5138881;27;20266;-70
2022/06/08 01:15:23;;;;;;;3.00;1.20;;;;;;;15.49;88.88;97809.00;5137489;27;20255;-69
2022/06/08 01:17:50;;;;;;;2.00;1.27;;;;;;;15.49;89.09;97809.00;5137440;27;20332;-69
2022/06/08 01:20:17;;;;;;;2.17;1.30;;;;;;;15.54;88.57;97806.34;5137388;27;20217;-70
2022/06/08 01:22:43;;;;;;;2.13;1.40;;;;;;;15.54;88.93;97803.69;5137341;27;20289;-69
2022/06/08 01:25:15;;;;;;;1.23;1.13;;;;;;;15.46;89.66;97806.81;5137261;27;20695;-69
2022/06/08 01:27:41;;;;;;;2.17;1.33;;;;;;;15.46;90.61;97803.31;5137788;27;20233;-70
2022/06/08 01:30:14;;;;;;;1.43;1.20;;;;;;;15.45;90.13;97793.69;5137184;27;20210;-69
2022/06/08 01:32:58;;;;;;;1.30;1.20;;;;;;;15.39;90.47;97795.53;5138018;27;20285;-69
2022/06/08 01:35:31;;;;;;;3.50;1.27;;;;;;;15.33;91.89;97796.50;5137160;27;20187;-69
2022/06/08 01:38:17;;;;;;;2.77;1.23;;;;;;;15.28;92.33;97790.31;5137290;27;20222;-69
2022/06/08 01:41:01;;;;;;;3.83;1.30;;;;;;;15.26;92.75;97790.56;5120476;27;20256;-69
2022/06/08 01:43:45;;;;;;;2.03;1.40;;;;;;;15.24;92.26;97789.19;5136998;27;20277;-69
2022/06/08 01:46:25;;;;;;;3.57;1.30;;;;;;;15.19;92.31;97791.84;5118851;27;20196;-69
2022/06/08 01:48:56;;;;;;;2.00;1.20;;;;;;;15.03;93.57;97782.84;5137077;27;20228;-70
2022/06/08 01:51:35;;;;;;;1.40;1.30;;;;;;;14.95;94.11;97787.84;5118616;27;20217;-69
2022/06/08 01:54:14;;;;;;;1.60;1.50;;;;;;;14.87;95.31;97775.72;5136527;27;20296;-69
2022/06/08 01:57:09;;;;;;;1.37;1.27;;;;;;;14.82;95.24;97775.66;5136727;27;20247;-69
2022/06/08 01:59:55;;;;;;;1.43;1.33;;;;;;;14.84;95.45;97778.88;5125512;27;20222;-69
2022/06/08 02:02:33;;;;;;;1.63;1.40;;;;;;;14.81;96.37;97778.59;5136633;27;20183;-69
2022/06/08 02:05:21;;;;;;;2.37;1.47;;;;;;;14.82;95.70;97777.53;5136539;27;20187;-69
2022/06/08 02:08:16;;;;;;;3.80;1.50;;;;;;;14.84;95.24;97770.06;5118209;27;20226;-69
2022/06/08 02:10:57;;;;;;;2.50;1.27;;;;;;;14.85;96.05;97767.16;5118301;27;20206;-69
2022/06/08 02:13:36;;;;;;;1.93;1.37;;;;;;;14.80;96.12;97771.63;5101439;27;20661;-69
2022/06/08 02:16:33;;;;;;;1.50;1.40;;;;;;;14.74;95.83;97775.34;5136346;27;20279;-69
2022/06/08 02:19:11;;;;;;;2.30;1.70;;;;;;;14.68;96.37;97765.59;5134173;27;20226;-69
2022/06/08 02:21:44;;;;;;;1.83;1.60;;;;;;;14.61;97.03;97773.03;5136164;27;20216;-69
2022/06/08 02:24:13;;;;;;;3.67;1.50;;;;;;;14.69;96.96;97759.19;5135566;27;20278;-69
2022/06/08 02:26:44;;;;;;;2.30;1.40;;;;;;;14.67;96.43;97764.00;5135580;27;20342;-69
2022/06/08 02:29:20;;;;;;;1.50;1.40;;;;;;;14.61;97.44;97763.13;5117619;27;20313;-69
2022/06/08 02:32:01;;;;;;;1.63;1.50;;;;;;;14.56;97.90;97762.28;5135956;27;20232;-69
2022/06/08 02:34:42;;;;;;;2.30;1.50;;;;;;;14.50;97.74;97760.59;5135693;27;20660;-69
2022/06/08 02:37:21;;;;;;;4.63;1.60;;;;;;;14.46;98.24;97757.63;5135940;27;20289;-69
2022/06/08 02:39:52;;;;;;;2.80;1.67;;;;;;;14.46;98.67;97754.94;5135946;27;20570;-69
2022/06/08 02:42:31;;;;;;;3.23;1.57;;;;;;;14.48;98.29;97752.03;5136157;27;20189;-69
2022/06/08 02:45:05;;;;;;;2.63;1.40;;;;;;;14.42;97.91;97750.38;5135814;27;20195;-69
2022/06/08 02:47:35;;;;;;;4.13;1.73;;;;;;;14.43;97.20;97755.44;5118266;27;20277;-69
2022/06/08 02:50:04;;;;;;;2.40;1.50;;;;;;;14.50;97.47;97750.72;5136218;27;20297;-69
2022/06/08 02:52:31;;;;;;;3.53;1.47;;;;;;;14.35;99.41;97753.22;5136085;27;20223;-70
2022/06/08 02:54:58;;;;;;;4.13;1.60;;;;;;;14.26;99.21;97752.06;5135801;27;20665;-69
2022/06/08 02:57:44;;;;;;;1.40;1.30;;;;;;;14.30;99.34;97741.66;5135320;27;20294;-69
2022/06/08 03:00:19;;;;;;;2.10;1.57;;;;;;;14.28;99.13;97741.06;5135397;27;20197;-69
2022/06/08 03:02:51;;;;;;;1.80;1.70;;;;;;;14.12;100.00;97734.75;5135021;27;20704;-69
2022/06/08 03:05:29;;;;;;;3.77;1.50;;;;;;;14.12;100.00;97737.41;5135002;27;20209;-69
2022/06/08 03:08:01;;;;;;;3.10;1.83;;;;;;;14.19;100.00;97729.16;5135279;27;20313;-69
2022/06/08 03:10:32;;;;;;;1.83;1.50;;;;;;;14.12;100.00;97728.56;5134986;27;20201;-69
2022/06/08 03:13:06;;;;;;;2.90;1.50;;;;;;;14.17;99.93;97729.44;5134764;27;20210;-69
2022/06/08 03:15:34;;;;;;;2.40;1.50;;;;;;;14.21;100.00;97727.94;5134875;27;20191;-69
2022/06/08 03:18:01;;;;;;;3.93;1.63;;;;;;;14.21;100.00;97727.94;5134988;27;20313;-69
2022/06/08 03:20:29;;;;;;;1.83;1.60;;;;;;;14.27;100.00;97726.09;5135025;27;20220;-69
2022/06/08 03:22:56;;;;;;;2.43;1.70;;;;;;;14.31;100.00;97728.03;5134955;27;20195;-69
2022/06/08 03:25:24;;;;;;;4.37;1.70;;;;;;;14.23;100.00;97719.63;5134952;27;20271;-69
2022/06/08 03:27:51;;;;;;;2.60;1.60;;;;;;;14.33;100.00;97717.88;5134509;27;20712;-69
2022/06/08 03:30:19;;;;;;;2.20;1.50;;;;;;;14.26;100.00;97722.63;5134580;27;20234;-69
2022/06/08 03:32:45;;;;;;;3.10;1.80;;;;;;;14.31;100.00;97721.88;5134629;27;20249;-69
2022/06/08 03:35:13;;;;;;;3.43;1.70;;;;;;;14.33;100.00;97720.56;5134619;27;20203;-69
2022/06/08 03:37:39;;;;;;;5.93;1.73;;;;;;;14.42;98.78;97720.94;5134204;27;20779;-69
2022/06/08 03:40:07;;;;;;;2.27;1.60;;;;;;;14.43;99.93;97720.66;5134202;27;20748;-69
2022/06/08 03:42:34;;;;;;;2.67;1.57;;;;;;;14.37;100.00;97719.00;5134481;27;20205;-69
2022/06/08 03:45:01;;;;;;;2.27;1.90;;;;;;;14.40;100.00;97726.53;5134245;27;20214;-69
2022/06/08 03:47:33;;;;;;;3.50;1.70;;;;;;;14.41;98.16;97724.66;5134164;27;20684;-69
2022/06/08 03:50:03;;;;;;;2.97;1.63;;;;;;;14.51;99.27;97716.75;5135163;27;20186;-70
2022/06/08 03:52:35;;;;;;;2.87;1.90;;;;;;;14.50;97.82;97717.78;5134319;27;20226;-69
2022/06/08 03:55:04;;;;;;;2.07;1.87;;;;;;;14.55;98.13;97713.31;5133912;27;20327;-69
2022/06/08 03:57:32;;;;;;;2.77;1.87;;;;;;;14.63;96.76;97715.53;5134131;27;20239;-69
2022/06/08 04:00:00;;;;;;;2.20;1.57;;;;;;;14.67;96.43;97714.00;5133888;28;20245;-69
2022/06/08 04:02:27;;;;;;;3.67;1.70;;;;;;;14.72;96.70;97713.22;5134566;28;20198;-69
2022/06/08 04:04:54;;;;;;;3.97;1.77;;;;;;;14.76;95.36;97719.69;5133619;28;20293;-69
2022/06/08 04:07:20;;;;;;;4.17;1.57;;;;;;;14.82;95.34;97715.97;5134550;28;20520;-69
2022/06/08 04:09:47;;;;;;;2.70;1.50;;;;;;;14.85;95.05;97720.84;5133970;28;20311;-69
2022/06/08 04:12:13;;;;;;;3.90;1.87;;;;;;;14.95;92.93;97718.25;5133977;28;20229;-70
2022/06/08 04:14:40;;;;;;;5.30;1.70;;;;;;;14.99;92.25;97717.50;5133922;28;20209;-69
2022/06/08 04:17:07;;;;;;;2.83;1.70;;;;;;;15.04;91.25;97724.75;5134028;28;20202;-69
2022/06/08 04:19:34;;;;;;;5.67;1.80;;;;;;;15.12;89.23;97727.78;5133513;28;20638;-69
2022/06/08 04:22:00;;;;;;;4.57;1.70;;;;;;;15.15;88.17;97726.47;5133361;28;20198;-69
2022/06/08 04:24:27;;;;;;;2.20;1.50;;;;;;;15.19;87.62;97731.03;5133798;28;20293;-69
2022/06/08 04:26:53;;;;;;;2.40;1.60;;;;;;;15.26;87.21;97718.25;5133948;28;20206;-69
2022/06/08 04:29:20;;;;;;;3.63;1.50;;;;;;;15.29;85.59;97714.25;5133479;28;20700;-69
2022/06/08 04:31:47;;;;;;;2.00;1.50;;;;;;;15.33;84.79;97721.50;5133798;28;20218;-69
2022/06/08 04:34:14;;;;;;;2.20;1.40;;;;;;;15.42;83.79;97727.25;5134040;28;20301;-69
2022/06/08 04:36:42;;;;;;;2.43;1.40;;;;;;;15.41;82.60;97721.06;5133358;28;20682;-69
2022/06/08 04:39:11;;;;;;;1.87;1.30;;;;;;;15.49;81.09;97717.91;5133320;28;20781;-69
2022/06/08 04:41:39;;;;;;;2.10;1.47;;;;;;;15.54;81.64;97719.81;5133284;28;20202;-69
2022/06/08 04:44:05;;;;;;;4.47;1.30;;;;;;;15.47;80.65;97706.63;5133423;28;20202;-69
2022/06/08 04:46:32;;;;;;;2.80;1.23;;;;;;;15.45;80.81;97702.59;5133256;28;20293;-69
2022/06/08 04:48:59;;;;;;;3.53;1.70;;;;;;;15.50;80.72;97700.75;5135477;27;20253;-69
2022/06/08 04:51:25;;;;;;;3.53;1.37;;;;;;;15.40;81.37;97707.91;5137178;27;20222;-69
2022/06/08 04:53:52;;;;;;;3.13;1.60;;;;;;;15.28;79.84;97708.06;5137181;27;20217;-69
2022/06/08 04:56:19;;;;;;;5.80;1.70;;;;;;;15.33;79.99;97710.78;5137254;27;20305;-70
2022/06/08 04:58:45;;;;;;;2.27;1.30;;;;;;;15.28;80.46;97713.44;5136997;27;20241;-69
2022/06/08 05:01:12;;;;;;;2.33;1.43;;;;;;;15.33;80.41;97710.78;5136963;27;20668;-69
2022/06/08 05:03:38;;;;;;;2.70;1.73;;;;;;;15.33;82.64;97713.47;5137010;27;20301;-69
2022/06/08 05:06:05;;;;;;;2.27;1.30;;;;;;;15.40;81.90;97721.31;5136994;27;20203;-69
2022/06/08 05:08:34;;;;;;;3.07;1.70;;;;;;;15.32;79.70;97722.56;5136294;27;20607;-69
2022/06/08 05:11:04;;;;;;;4.27;1.67;;;;;;;15.34;78.45;97723.13;5137573;27;20202;-69
2022/06/08 05:13:31;;;;;;;2.37;1.30;;;;;;;15.45;79.96;97726.69;5137222;27;20217;-69
2022/06/08 05:15:57;;;;;;;6.23;1.83;;;;;;;15.75;77.33;97714.28;5136804;27;20207;-69
2022/06/08 05:18:24;;;;;;;2.90;1.30;;;;;;;15.87;75.96;97722.16;5137007;27;20604;-69
2022/06/08 05:20:51;;;;;;;5.13;1.50;;;;;;;16.17;74.68;97723.09;5137763;27;20206;-69
2022/06/08 05:23:21;;;;;;;5.10;1.30;;;;;;;16.40;74.03;97730.72;5136820;27;20562;-69
2022/06/08 05:25:48;;;;;;;2.30;1.50;;;;;;;16.79;72.16;97725.72;5137634;27;20615;-69
2022/06/08 05:28:14;;;;;;;3.53;1.33;;;;;;;16.47;72.78;97719.75;5136464;27;20309;-69
2022/06/08 05:30:43;;;;;;;3.23;1.40;;;;;;;16.60;72.09;97712.00;5136750;27;20210;-69
2022/06/08 05:33:10;;;;;;;4.30;1.37;;;;;;;16.60;71.66;97713.88;5135676;27;20727;-69
2022/06/08 05:35:38;;;;;;;4.83;1.40;;;;;;;16.52;72.12;97715.19;5136479;27;20289;-69
2022/06/08 05:38:06;;;;;;;5.43;1.60;;;;;;;16.38;73.18;97713.25;5136247;27;20230;-69
2022/06/08 05:40:33;;;;;;;3.00;1.10;;;;;;;16.29;72.42;97712.94;5136573;27;20202;-69
2022/06/08 05:43:01;;;;;;;4.87;1.47;;;;;;;16.50;73.65;97713.84;5136360;27;20213;-69
2022/06/08 05:45:31;;;;;;;3.87;1.40;;;;;;;16.52;71.95;97712.50;5136014;27;20198;-70
2022/06/08 05:47:59;;;;;;;5.83;1.60;;;;;;;16.77;71.75;97703.69;5136298;27;20222;-70
2022/06/08 05:50:27;;;;;;;2.97;1.60;;;;;;;16.90;71.27;97711.22;5136319;27;20309;-70
2022/06/08 05:53:08;;;;;;;2.53;1.33;;;;;;;16.65;71.98;97708.53;5136286;27;20317;-70
2022/06/08 05:55:34;;;;;;;2.20;1.63;;;;;;;16.69;71.70;97707.72;5135283;27;20190;-70
2022/06/08 05:58:01;;;;;;;4.73;1.20;;;;;;;17.00;73.21;97704.00;5136155;27;20309;-70
2022/06/08 06:00:31;;;;;;;3.77;1.43;;;;;;;17.19;71.01;97705.06;5135945;27;20224;-70
2022/06/08 06:03:01;;;;;;;3.63;1.43;;;;;;;17.04;70.54;97701.56;5136107;27;20190;-70
2022/06/08 06:05:31;;;;;;;3.13;1.40;;;;;;;17.14;70.96;97699.69;5135692;27;20221;-70
2022/06/08 06:07:59;;;;;;;4.53;1.40;;;;;;;17.23;69.88;97698.09;5135702;27;20222;-70
2022/06/08 06:10:28;;;;;;;4.40;1.43;;;;;;;17.38;69.54;97694.59;5135929;27;20198;-70
2022/06/08 06:12:54;;;;;;;4.90;1.67;;;;;;;17.61;68.29;97691.34;5135752;27;20227;-70
2022/06/08 06:15:25;;;;;;;2.83;1.53;;;;;;;17.65;67.61;97690.53;5136260;27;20213;-71
2022/06/08 06:17:52;;;;;;;2.53;1.33;;;;;;;17.57;67.57;97680.34;5135344;27;20297;-70
2022/06/08 06:20:19;;;;;;;4.50;1.40;;;;;;;17.76;67.86;97686.75;5135757;27;20202;-70
2022/06/08 06:22:46;;;;;;;6.33;1.50;;;;;;;17.87;68.10;97680.25;5135582;27;20195;-71
2022/06/08 06:25:12;;;;;;;3.93;1.20;;;;;;;17.76;68.31;97673.31;5135819;27;20628;-70
2022/06/08 06:27:39;;;;;;;3.77;1.20;;;;;;;17.60;68.02;97685.16;5135274;27;20708;-69
2022/06/08 06:30:06;;;;;;;4.17;1.30;;;;;;;17.58;68.31;97687.31;5135612;27;20259;-69
2022/06/08 06:32:36;;;;;;;5.10;1.50;;;;;;;17.83;67.92;97673.00;5135048;27;20218;-69
2022/06/08 06:35:05;;;;;;;3.53;1.50;;;;;;;17.84;66.49;97672.75;5135575;27;20225;-69
2022/06/08 06:37:32;;;;;;;3.10;1.27;;;;;;;17.85;65.55;97668.97;5134806;27;20729;-70
2022/06/08 06:39:58;;;;;;;3.63;1.40;;;;;;;18.06;67.08;97669.69;5134817;27;20210;-70
2022/06/08 06:42:30;;;;;;;6.43;1.50;;;;;;;17.93;66.15;97671.09;5134616;27;20289;-69
2022/06/08 06:45:14;;;;;;;4.70;1.10;;;;;;;17.81;65.60;97675.16;5135104;27;20235;-69
2022/06/08 06:47:51;;;;;;;2.93;1.20;;;;;;;17.86;65.79;97664.38;5134377;27;20265;-69
2022/06/08 06:51:08;;;;;;;2.73;1.33;;;;;;;17.66;64.99;97667.97;5135107;27;20246;-70
2022/06/08 07:00:30;;;;;;;3.13;1.57;;;;;;;18.15;65.20;97665.34;4910049;29;20225;-70
2022/06/08 07:03:11;;;;;;;6.27;1.50;;;;;;;18.48;65.43;97676.25;4915695;29;20198;-70
2022/06/08 07:09:43;;;;;;;4.23;1.40;;;;;;;18.20;66.91;97658.06;5213651;22;20240;-70
2022/06/08 07:16:03;;;;;;;3.03;1.40;;;;;;;18.07;65.01;97655.16;5022304;28;20274;-70
2022/06/08 07:19:06;;;;;;;;;;;;;;;;;;;;;
2022/06/08 07:24:55;;;;;;;3.60;1.30;;;;;;;18.36;64.00;97638.09;4987916;28;20682;-70
2022/06/08 07:27:25;;;;;;;3.47;1.33;;;;;;;18.26;64.10;97642.69;5052264;28;20200;-71
2022/06/08 07:30:03;;;;;;;2.73;1.13;;;;;;;18.22;64.08;97638.94;5053085;28;20186;-70
2022/06/08 07:32:31;;;;;;;4.70;1.33;;;;;;;18.43;63.54;97635.91;5054079;28;20217;-70
2022/06/08 07:35:25;;;;;;;2.77;1.27;;;;;;;18.58;64.42;97633.09;5053254;28;20664;-69
2022/06/08 07:38:10;;;;;;;3.50;1.33;;;;;;;18.61;63.61;97629.03;5050329;28;20599;-69
2022/06/08 07:40:55;;;;;;;6.80;1.63;;;;;;;18.78;62.82;97627.56;5053366;28;20185;-69
2022/06/08 07:43:44;;;;;;;5.83;1.67;;;;;;;18.69;62.93;97623.84;5052948;28;20205;-69
2022/06/08 07:46:22;;;;;;;5.60;1.50;;;;;;;18.82;63.12;97617.84;5052717;28;20629;-69
2022/06/08 07:57:47;;;;;;;4.63;1.60;;;;;;;19.32;62.15;97600.44;5050002;28;20244;-70
2022/06/08 08:00:15;;;;;;;4.03;1.50;;;;;;;19.16;61.50;97601.63;5053113;28;20248;-69
2022/06/08 08:03:06;;;;;;;3.10;1.30;;;;;;;19.18;61.85;97594.88;5053063;28;20247;-69
2022/06/08 08:05:38;;;;;;;4.03;1.10;;;;;;;19.43;60.37;97591.97;5052642;28;20664;-71
2022/06/08 08:14:31;;;;;;;;;;;;;;;;;;;;;
2022/06/08 08:19:44;;;;;;;4.43;1.10;;;;;;;19.45;59.58;97584.38;5169011;22;20232;-70
2022/06/08 08:25:15;;;;;;;2.30;1.10;;;;;;;19.80;58.14;97577.75;5069261;28;20300;-71
2022/06/08 08:27:54;;;;;;;2.80;1.20;;;;;;;19.80;58.77;97579.69;5076865;28;20622;-70
2022/06/08 08:40:14;;;;;;;2.80;1.30;;;;;;;19.87;57.19;97567.44;5061468;28;20212;-70
2022/06/08 08:42:54;;;;;;;2.93;1.40;;;;;;;20.14;57.37;97564.13;5076624;28;20586;-70
2022/06/08 08:45:34;;;;;;;8.03;1.53;;;;;;;20.32;57.01;97568.72;5076111;28;20279;-71
2022/06/08 08:48:29;;;;;;;3.10;1.10;;;;;;;20.51;54.95;97570.31;5076457;28;20260;-71
2022/06/08 08:51:44;;;;;;;1.87;1.20;;;;;;;20.22;53.21;97566.19;5071873;28;20216;-70
2022/06/08 08:54:38;;;;;;;4.10;1.27;;;;;;;20.23;53.62;97555.09;5059559;28;20738;-70
2022/06/08 08:57:31;;;;;;;3.70;1.30;;;;;;;20.38;53.58;97549.44;5076695;28;20292;-70
2022/06/08 09:00:00;;;;;;;6.00;1.43;;;;;;;20.39;53.31;97553.75;5074669;28;20584;-70
2022/06/08 09:06:04;;;;;;;6.27;1.60;;;;;;;20.23;52.46;97530.78;5076118;28;20171;-70
2022/06/08 09:14:51;;;;;;;3.50;1.20;;;;;;;21.50;51.99;97522.88;5033793;28;20328;-71
2022/06/08 09:20:33;;;;;;;2.93;1.17;;;;;;;21.36;50.65;97522.09;5031342;28;20754;-71
2022/06/08 09:24:03;;;;;;;3.43;1.40;;;;;;;21.29;49.80;97517.06;5033898;28;20317;-71
2022/06/08 09:32:36;;;;;;;2.60;1.27;;;;;;;21.75;52.21;97493.44;5032059;28;20784;-71
2022/06/08 09:35:37;;;;;;;2.57;1.20;;;;;;;21.50;49.10;97491.25;5063241;28;20205;-70
2022/06/08 09:38:10;;;;;;;3.83;1.20;;;;;;;22.05;48.38;97491.94;5075404;28;20497;-70
2022/06/08 09:41:05;;;;;;;2.70;1.40;;;;;;;21.99;49.52;97485.06;5074505;28;20220;-70
2022/06/08 09:43:52;;;;;;;2.77;1.20;;;;;;;22.10;47.97;97481.00;5075205;28;20188;-70
2022/06/08 09:52:56;;;;;;;2.13;1.20;;;;;;;22.46;47.42;97465.53;5075042;28;20196;-70
2022/06/08 09:55:44;;;;;;;3.80;1.33;;;;;;;22.55;45.37;97467.19;5074932;28;20192;-70
2022/06/08 09:58:49;;;;;;;1.77;1.10;;;;;;;22.26;48.02;97466.00;5074923;28;20315;-70
2022/06/08 10:01:30;;;;;;;2.53;1.30;;;;;;;22.28;49.51;97464.59;5074958;28;20189;-70
2022/06/08 10:07:27;;;;;;;2.17;1.20;;;;;;;22.45;44.94;97451.22;5075068;28;20651;-70
2022/06/08 10:10:07;;;;;;;2.73;1.20;;;;;;;22.39;45.19;97451.63;5073481;28;20247;-69
2022/06/08 10:12:46;;;;;;;3.55;1.30;;;;;;;22.24;44.27;97446.56;5074372;28;20238;-69
2022/06/08 10:15:34;;;;;;;2.88;1.10;;;;;;;22.25;46.75;97451.66;5074843;28;20195;-68
2022/06/08 10:18:10;;;;;;;3.50;1.25;;;;;;;22.11;45.87;97439.31;5075034;28;20557;-69
2022/06/08 10:20:40;;;;;;;1.83;1.23;;;;;;;22.12;44.93;97438.97;5074305;28;20192;-69
2022/06/08 10:23:18;;;;;;;1.90;1.10;;;;;;;22.25;44.10;97440.03;5074218;28;20200;-69
2022/06/08 10:28:41;;;;;;;1.75;1.30;;;;;;;22.55;44.90;97431.16;5072679;28;20235;-68
2022/06/08 10:31:31;;;;;;;2.00;1.10;;;;;;;22.40;42.99;97429.63;5074328;28;20291;-68
2022/06/08 10:34:11;;;;;;;2.58;1.17;;;;;;;22.57;44.33;97432.47;5073385;28;20221;-68
2022/06/08 10:36:44;;;;;;;3.53;1.03;;;;;;;22.25;41.87;97431.94;5073306;28;20195;-68
2022/06/08 10:39:17;;;;;;;3.40;1.33;;;;;;;22.77;42.08;97421.09;5073863;28;20327;-69
2022/06/08 10:45:22;;;;;;;2.95;1.08;;;;;;;22.22;40.83;97410.88;5073803;28;20172;-68
2022/06/08 10:48:17;;;;;;;4.68;1.25;;;;;;;22.62;41.45;97399.03;5073558;28;20594;-68
2022/06/08 10:51:27;;;;;;;2.20;1.10;;;;;;;22.54;40.60;97399.78;5074641;28;20232;-68
2022/06/08 10:56:47;;;;;;;2.30;1.20;;;;;;;22.73;41.26;97394.91;5073858;28;20595;-68
2022/06/08 10:59:25;;;;;;;2.20;1.10;;;;;;;22.92;40.23;97385.44;5073195;28;20234;-69
2022/06/08 11:02:31;;;;;;;1.60;1.10;;;;;;;22.85;42.00;97382.41;5073409;28;20588;-71
2022/06/08 11:05:35;;;;;;;2.42;1.20;;;;;;;22.77;41.38;97377.75;5073816;28;20193;-71
2022/06/08 11:08:09;;;;;;;3.70;1.40;;;;;;;22.72;42.25;97374.38;5031772;28;20226;-70
2022/06/08 11:10:51;;;;;;;1.67;1.10;;;;;;;22.69;41.46;97375.78;5067495;28;20201;-71
2022/06/08 11:13:48;;;;;;;2.50;1.08;;;;;;;22.73;38.17;97371.34;5074099;28;20219;-71
2022/06/08 11:16:47;;;;;;;2.22;0.90;;;;;;;22.67;37.62;97375.31;5073571;28;20283;-70
2022/06/08 11:19:23;;;;;;;2.20;1.10;;;;;;;22.68;38.26;97371.50;5073272;28;20232;-70
2022/06/08 11:25:03;;;;;;;2.30;1.05;;;;;;;22.59;39.58;97365.22;5045735;28;20207;-71
2022/06/08 11:28:30;;;;;;;2.35;0.90;;;;;;;22.39;40.32;97354.88;5073339;28;20216;-70
2022/06/08 11:31:33;;;;;;;2.67;1.05;;;;;;;22.66;40.27;97356.66;5073219;28;20697;-71
2022/06/08 11:37:10;;;;;;;1.40;1.10;;;;;;;22.58;40.90;97347.38;5011707;28;20303;-71
2022/06/08 11:40:01;;;;;;;3.10;1.08;;;;;;;22.76;41.75;97345.53;5069995;28;20304;-71
2022/06/08 11:42:36;;;;;;;4.55;3.67;;;;;;;22.50;37.88;97347.31;5073378;28;20246;-71
2022/06/08 11:48:29;;;;;;;2.53;0.95;;;;;;;22.50;40.35;97350.84;5064709;28;20239;-71
2022/06/08 11:51:06;;;;;;;3.88;2.55;;;;;;;22.59;39.30;97346.25;5072966;28;20636;-71
2022/06/08 11:53:36;;;;;;;4.38;1.25;;;;;;;22.16;39.14;97337.09;5073156;28;20219;-70
2022/06/08 11:59:43;;;;;;;3.63;2.38;;;;;;;22.38;39.92;97345.16;5063817;28;20366;-70
2022/06/08 12:02:40;;;;;;;2.03;1.00;;;;;;;22.84;41.05;97336.63;5072832;28;20631;-70
2022/06/08 12:05:08;;;;;;;2.13;1.60;;;;;;;23.04;39.99;97341.47;5073683;28;20199;-70
2022/06/08 12:08:12;;;;;;;1.80;1.10;;;;;;;23.42;39.71;97323.53;5073030;28;20627;-70
2022/06/08 12:10:40;;;;;;;1.60;0.82;;;;;;;23.44;37.49;97326.72;5072641;28;20208;-70
2022/06/08 12:16:27;;;;;;;2.40;0.98;;;;;;;24.10;37.59;97321.56;5052773;28;20682;-70
2022/06/08 12:19:06;;;;;;;3.83;1.08;;;;;;;24.06;36.56;97312.47;5072478;28;20230;-70
2022/06/08 12:22:06;;;;;;;3.90;1.00;;;;;;;24.03;37.86;97312.34;5073393;28;20188;-71
2022/06/08 12:24:52;;;;;;;2.28;1.00;;;;;;;23.76;38.21;97312.66;5072736;28;20551;-71
2022/06/08 12:27:21;;;;;;;1.58;1.33;;;;;;;23.52;36.58;97293.38;5073045;28;20211;-71
2022/06/08 12:30:26;;;;;;;1.80;1.10;;;;;;;23.65;38.38;97297.84;5072526;28;20205;-71
2022/06/08 12:33:00;;;;;;;4.32;1.20;;;;;;;23.42;37.09;97301.84;5051944;28;20207;-71
2022/06/08 12:35:32;;;;;;;1.42;1.10;;;;;;;23.16;38.30;97306.41;5072738;28;20196;-71
2022/06/08 12:38:27;;;;;;;1.15;1.00;;;;;;;23.15;38.54;97302.88;5071917;28;20228;-71
2022/06/08 12:41:14;;;;;;;2.78;1.45;;;;;;;23.18;37.98;97304.16;5072502;28;20280;-70
2022/06/08 12:43:50;;;;;;;3.35;2.03;;;;;;;23.21;37.48;97303.56;5072577;28;20275;-70
2022/06/08 12:46:27;;;;;;;3.83;2.30;;;;;;;23.10;36.96;97289.47;5072238;28;20632;-71
2022/06/08 12:49:17;;;;;;;13.73;12.27;;;;;;;23.02;37.36;97294.91;5072258;28;20663;-71
2022/06/08 12:51:48;;;;;;;1.58;0.90;;;;;;;23.09;37.39;97289.78;5072541;28;20229;-71
2022/06/08 12:54:34;;;;;;;1.92;1.05;;;;;;;23.07;37.21;97298.25;5072682;28;20293;-71
2022/06/08 12:57:26;;;;;;;5.40;3.75;;;;;;;23.05;37.72;97303.19;5072330;28;20193;-71
2022/06/08 13:00:07;;;;;;;1.45;1.05;;;;;;;22.99;37.66;97290.91;5072303;28;20644;-72
2022/06/08 13:02:44;;;;;;;1.67;0.95;;;;;;;23.13;37.89;97291.56;5072607;28;20189;-73
2022/06/08 13:05:28;;;;;;;2.40;1.10;;;;;;;23.33;37.63;97285.53;5072469;28;20184;-73
2022/06/08 13:11:04;;;;;;;4.05;1.40;;;;;;;23.20;39.55;97272.94;5072939;28;20256;-72
2022/06/08 13:13:45;;;;;;;2.75;1.08;;;;;;;22.99;38.35;97277.34;5075660;28;20630;-72
2022/06/08 13:19:40;;;;;;;30.98;27.80;;;;;;;22.97;37.42;97267.94;5033713;28;20241;-71
2022/06/08 13:22:30;;;;;;;1.05;0.95;;;;;;;23.04;38.88;97266.34;5033685;28;20226;-71
2022/06/08 13:25:05;;;;;;;2.50;1.13;;;;;;;23.03;38.79;97259.34;5033846;28;20209;-72
2022/06/08 13:30:22;;;;;;;2.67;1.95;;;;;;;22.98;39.89;97273.03;4972932;28;20692;-71
2022/06/08 13:32:51;;;;;;;3.22;1.10;;;;;;;22.92;39.22;97270.81;5033294;28;20312;-72
2022/06/08 13:35:23;;;;;;;9.30;8.40;;;;;;;22.75;38.74;97271.56;5034048;28;20222;-71
2022/06/08 13:37:58;;;;;;;2.72;2.33;;;;;;;22.73;38.56;97272.97;5071061;28;20293;-71
2022/06/08 13:40:37;;;;;;;2.08;1.17;;;;;;;22.73;38.10;97267.56;5073851;28;20239;-71
2022/06/08 13:46:36;;;;;;;1.52;0.90;;;;;;;23.09;39.08;97263.50;5033344;28;20297;-71
2022/06/08 13:49:24;;;;;;;1.95;1.75;;;;;;;23.03;37.66;97261.25;5075018;28;20315;-71
2022/06/08 13:51:54;;;;;;;1.90;1.17;;;;;;;23.27;39.09;97258.88;5074515;28;20671;-72
2022/06/08 13:55:11;;;;;;;3.05;1.40;;;;;;;23.32;38.86;97247.88;5075339;28;20244;-71
2022/06/08 14:03:12;;;;;;;3.67;1.35;;;;;;;22.98;39.17;97262.19;5068547;28;20213;-72
2022/06/08 14:15:22;;;;;;;1.10;1.00;;;;;;;22.81;38.83;97266.78;5074596;28;20196;-71
2022/06/08 14:18:45;;;;;;;2.83;1.10;;;;;;;22.72;39.05;97258.66;5074421;28;20297;-71
2022/06/08 14:21:49;;;;;;;3.22;1.40;;;;;;;22.69;39.55;97253.03;5032312;28;20309;-71
2022/06/08 14:24:34;;;;;;;2.15;1.00;;;;;;;22.71;39.83;97256.25;5019661;28;20254;-71
2022/06/08 14:30:05;;;;;;;2.15;1.00;;;;;;;22.43;40.29;97263.00;5085543;22;20282;-72